Toamasina Airport
FMMT : now visible

Airfield :











YOU CAN JOIN US ON...

 
LOGIN :

Register | Disclaimer

   EN    FR    IT 

 









Legend :    VFR   Marginal VFR   IFR   Intensive IFR   Very Intensive IFR
Visi :
Ceiling :
>= 8 km
>= 3000ft
5 to 8 km
1000 to 3000 ft
1500m to 5 km
500 to 1000 ft
800 to 1500m
200 to 500 ft
< 800m
< 200 ft
Symbols :   Thunderstorms  Fog  Heavy snow  Heavy precipitations  Wind > 20 kt






- Airport Elevation : 22 ft
- IATA code : TMM


FMMT - Toamasina

CURRENT METAR :
  • 020600Z 24016KT 8000 VCSH FEW007 SCT017 BKN033 21/21 Q1022 TEMPO 3500 -DZRA

EXPIRED METARs :
  • 020500Z 24014KT 8000 VCSH FEW007 SCT017 BKN033 21/20 Q1022 TEMPO 3500 -DZRA
  • 020400Z 24008KT 9999 VCSH FEW007 SCT017 BKN033 21/20 Q1021 TEMPO 4000 RA
  • 020300Z 24012KT 9999 VCSH FEW007 SCT017 BKN033 21/20 Q1021 TEMPO 4000 RA

TAF TAF FMMT
Valid from the 02 at 06:00 until the 03 at 06:00 UTC


020500Z 0206/0306 24010KT 9999 FEW007 SCT017 BKN033
TEMPO 0206/0306 3500 RA
BECMG 0208/0210 18012KT
BECMG 0214/0216 24006KT
FMMM FIR / Africa



MET'MAP, your aeronautical weather chart ! - Copyright ORBIFLY December 2007 - Disclaimer

ORBIFLY MET'MAP TEAM :

Programming & Development : Alexandra Zaïnal
Concept & original design : Baudouin d'Aumeries
Assistance for programming : Marc-Olivier Méhu
Technical & hardware support : Manuel Goepfert

Contact : metmap@orbifly.com




SOURCES & CREDITS :

   NOAA       Earth
Advisory